Terminal Aerodrome Forecast
Issued by NWS

Home | Current Version | Previous Version | Text Only | Print | Product List | Glossary On
Versions: 1 2 3 4 5 6 7 8 9 10 11 12 13 14 15 16 17 18 19 20 21
647
FTUS41 KBTV 300529
TAFSLK
TAF
KSLK 300529Z 3006/3106 00000KT 4SM BR SCT002
      TEMPO 3006/3010 1/2SM FG VV002
     FM301100 21006KT 2SM BR VCSH OVC025
     FM301400 20010KT P6SM VCSH BKN060
     FM301600 20010KT 6SM -SHRA BR BKN050
     FM302300 21009KT P6SM VCSH BKN050
     FM310200 21008KT P6SM VCSH SCT080=

USA.gov is the U.S. government's official web portal to all federal, state and local government web resources and services.